KDZJ

Blairsville Airport

Blairsville, Georgia, USA
METAR KDZJ 141635Z AUTO 12013G18KT 4SM -RA BR BKN031 OVC042 11/09 A3005 RMK AO2 T01090094
Observed Flight Rules
Dec-14 @ 16:35 UTC (28 minutes ago) Marginal Visual Flight Rules
Wind Visibility Clouds Conditions
120° at 13 knots
 Gusting to 18 knots
4 miles
  • Broken at 3,100' AGL
  • Overcast at 4,200' AGL
  • Light Rain
  • Mist
Temperatures Readings
Current 11°C / 52°F
Dewpoint 9°C / 48°F
Humidity 88%
Altimeter 30.05" Hg
Pressure 1018 hPa
Elevation 582
METAR KDZJ 141635Z AUTO 12013G18KT 4SM -RA BR BKN031 OVC042 11/09 A3005 RMK AO2 T01090094
Observed Flight Rules
Dec-14 @ 16:35 UTC
(28 minutes ago)
MVFR
Wind Visibility
120° at 13 knots
 Gusting to 18 knots
4 miles
Clouds
  • Broken at 3,100' AGL
  • Overcast at 4,200' AGL
Conditions
  • Light Rain
  • Mist
Temperature Dewpoint
11°C / 52°F 9°C / 48°F
Humidity Altimeter Pressure
88% 30.05" Hg 1018 hPa